Time;durP1;ratioP1;P1;durP2;ratioP2;P2;SDS_P1;SDS_P2;PMS_P1;PMS_P2;Temp;Humidity;BMP_temperature;BMP_pressure;BME280_temperature;BME280_humidity;BME280_pressure;Samples;Min_cycle;Max_cycle;Signal;HPM_P1;HPM_P2
2023/10/13 00:00:40;;;;;;;0.00;0.00;;;;;;;15.34;100.00;99541.94;4957340;28;20677;-75
2023/10/13 00:03:06;;;;;;;0.00;0.00;;;;;;;15.38;100.00;99542.94;4943668;28;20023;-74
2023/10/13 00:05:33;;;;;;;0.00;0.00;;;;;;;15.32;100.00;99511.16;4942686;28;20027;-75
2023/10/13 00:08:00;;;;;;;0.00;0.00;;;;;;;15.28;100.00;99530.25;4949483;28;20466;-74
2023/10/13 00:10:30;;;;;;;0.00;0.00;;;;;;;15.10;100.00;99515.63;4940912;28;20038;-77
2023/10/13 00:13:06;;;;;;;0.00;0.00;;;;;;;15.10;100.00;99521.13;4949710;28;20775;-75
2023/10/13 00:15:56;;;;;;;0.00;0.00;;;;;;;14.80;100.00;99474.03;4942154;28;20027;-75
2023/10/13 00:18:32;;;;;;;0.00;0.00;;;;;;;15.02;100.00;99546.69;4959163;28;20026;-76
2023/10/13 00:20:59;;;;;;;0.00;0.00;;;;;;;14.78;100.00;99479.06;4943227;28;20039;-76
2023/10/13 00:23:27;;;;;;;0.00;0.00;;;;;;;14.74;100.00;99475.31;4946716;28;20055;-76
2023/10/13 00:25:56;;;;;;;0.00;0.00;;;;;;;14.90;100.00;99496.94;4958300;28;20094;-77
2023/10/13 00:28:26;;;;;;;0.00;0.00;;;;;;;14.95;100.00;99494.84;4950277;28;20022;-77
2023/10/13 00:31:00;;;;;;;0.00;0.00;;;;;;;14.81;100.00;99474.88;4924776;28;20031;-77
2023/10/13 00:33:33;;;;;;;0.00;0.00;;;;;;;14.80;100.00;99449.28;4945584;28;20024;-77
2023/10/13 00:36:06;;;;;;;0.00;0.00;;;;;;;14.79;100.00;99450.44;4926628;28;20039;-77
2023/10/13 00:38:31;;;;;;;0.00;0.00;;;;;;;14.92;100.00;99467.97;4947910;28;20032;-77
2023/10/13 00:41:03;;;;;;;0.00;0.00;;;;;;;14.67;100.00;99400.69;4944658;28;20031;-77
2023/10/13 00:43:32;;;;;;;0.00;0.00;;;;;;;14.65;100.00;99416.69;4939838;28;20051;-77
2023/10/13 00:48:54;;;;;;;0.00;0.00;;;;;;;14.81;100.00;99406.88;4947642;28;20031;-78
2023/10/13 00:51:40;;;;;;;0.00;0.00;;;;;;;14.62;100.00;99374.13;4939829;28;20050;-77
2023/10/13 00:54:13;;;;;;;0.00;0.00;;;;;;;14.78;100.00;99396.50;4946558;28;20023;-77
2023/10/13 00:59:43;;;;;;;0.00;0.00;;;;;;;14.68;100.00;99383.03;4937807;28;20122;-76
2023/10/13 01:02:37;;;;;;;0.00;0.00;;;;;;;14.57;100.00;99351.41;4944064;28;20023;-78
2023/10/13 01:05:03;;;;;;;0.00;0.00;;;;;;;14.67;100.00;99370.41;4936139;28;20043;-77
2023/10/13 01:07:29;;;;;;;0.00;0.00;;;;;;;14.62;100.00;99346.59;4927984;28;20055;-74
2023/10/13 01:09:55;;;;;;;0.00;0.00;;;;;;;14.79;100.00;99362.38;4932219;29;20757;-78
2023/10/13 01:12:23;;;;;;;0.00;0.00;;;;;;;14.59;100.00;99338.16;4939897;28;20038;-79
2023/10/13 01:14:49;;;;;;;0.00;0.00;;;;;;;14.77;100.00;99359.09;4944329;28;20035;-79
2023/10/13 01:17:14;;;;;;;0.00;0.00;;;;;;;14.74;100.00;99347.94;4941646;28;20033;-78
2023/10/13 01:19:42;;;;;;;0.00;0.00;;;;;;;14.67;100.00;99315.38;4931530;29;20033;-78
2023/10/13 01:22:17;;;;;;;0.00;0.00;;;;;;;14.66;100.00;99314.59;4932426;28;20024;-78
2023/10/13 01:24:43;;;;;;;0.00;0.00;;;;;;;14.77;100.00;99328.84;4937594;29;20036;-77
2023/10/13 01:27:19;;;;;;;0.00;0.00;;;;;;;14.87;100.00;99335.19;4938983;28;20035;-78
2023/10/13 01:29:50;;;;;;;0.00;0.00;;;;;;;14.91;100.00;99338.88;4924413;29;20124;-77
2023/10/13 01:32:45;;;;;;;0.00;0.00;;;;;;;14.97;100.00;99321.09;4940782;28;20621;-78
2023/10/13 01:35:13;;;;;;;;;;;;;;;15.08;100.00;99311.38;4946067;28;20031;-77
2023/10/13 01:37:38;;;;;;;0.00;0.00;;;;;;;15.00;100.00;99290.19;4951554;28;19917;-78
2023/10/13 01:40:07;;;;;;;0.00;0.00;;;;;;;15.16;100.00;99315.28;4939812;28;20106;-76
2023/10/13 01:42:32;;;;;;;0.00;0.00;;;;;;;15.20;100.00;99308.00;4951333;28;20047;-77
2023/10/13 01:45:05;;;;;;;0.00;0.00;;;;;;;15.09;100.00;99271.72;4929504;28;20050;-77
2023/10/13 01:47:38;;;;;;;0.00;0.00;;;;;;;15.17;100.00;99270.91;4926920;28;20035;-79
2023/10/13 01:50:20;;;;;;;0.00;0.00;;;;;;;15.19;100.00;99249.34;4949286;28;20023;-78
2023/10/13 01:52:47;;;;;;;0.00;0.00;;;;;;;15.32;100.00;99261.31;4944357;28;20015;-77
2023/10/13 01:55:14;;;;;;;0.00;0.00;;;;;;;15.29;100.00;99236.41;4941983;28;20031;-78
2023/10/13 01:57:47;;;;;;;0.00;0.00;;;;;;;15.45;100.00;99223.72;4927664;28;20027;-77
2023/10/13 02:00:18;;;;;;;0.00;0.00;;;;;;;15.39;100.00;99197.50;4942406;28;20082;-78
2023/10/13 02:02:49;;;;;;;0.00;0.00;;;;;;;15.51;100.00;99218.84;4929799;28;20039;-76
2023/10/13 02:05:17;;;;;;;0.00;0.00;;;;;;;15.57;100.00;99225.00;4929254;28;20362;-77
2023/10/13 02:07:51;;;;;;;0.00;0.00;;;;;;;15.71;100.00;99223.63;4931870;28;20122;-77
2023/10/13 02:10:16;;;;;;;;;;;;;;;15.87;100.00;99229.44;4914174;28;20098;-77
2023/10/13 02:12:55;;;;;;;0.00;0.00;;;;;;;15.91;100.00;99234.28;4929521;28;20345;-76
2023/10/13 02:15:22;;;;;;;0.00;0.00;;;;;;;15.77;100.00;99213.25;4924506;28;20031;-77
2023/10/13 02:17:51;;;;;;;0.00;0.00;;;;;;;15.87;100.00;99212.91;4959757;28;20024;-76
2023/10/13 02:20:23;;;;;;;0.00;0.00;;;;;;;16.01;100.00;99226.44;4942168;28;20027;-77
2023/10/13 02:22:49;;;;;;;0.00;0.00;;;;;;;16.07;100.00;99218.81;4945193;28;20027;-77
2023/10/13 02:25:35;;;;;;;0.00;0.00;;;;;;;15.84;100.00;99182.44;4955251;28;20037;-78
2023/10/13 02:28:13;;;;;;;0.00;0.00;;;;;;;15.98;100.00;99165.66;4948682;28;20024;-77
2023/10/13 02:30:50;;;;;;;0.00;0.00;;;;;;;16.00;100.00;99160.63;4925362;28;20179;-77
2023/10/13 02:33:21;;;;;;;0.00;0.00;;;;;;;16.08;100.00;99145.97;4943196;28;20038;-75
2023/10/13 02:36:00;;;;;;;;;;;;;;;;;;;;;
2023/10/13 02:38:35;;;;;;;0.00;0.00;;;;;;;15.99;100.00;99143.28;4939209;28;20031;-75
2023/10/13 02:41:11;;;;;;;0.00;0.00;;;;;;;15.98;100.00;99129.81;4940070;28;20179;-76
2023/10/13 02:43:39;;;;;;;0.00;0.00;;;;;;;16.15;100.00;99146.25;4945141;28;20039;-76
2023/10/13 02:46:07;;;;;;;0.00;0.00;;;;;;;16.03;100.00;99111.16;4941205;28;20071;-76
2023/10/13 02:48:45;;;;;;;0.00;0.00;;;;;;;16.03;100.00;99104.81;4940385;28;20031;-77
2023/10/13 02:51:15;;;;;;;0.00;0.00;;;;;;;15.98;100.00;99088.47;4937843;28;20106;-76
2023/10/13 02:53:52;;;;;;;0.00;0.00;;;;;;;16.06;100.00;99098.63;4926608;28;20582;-77
2023/10/13 02:56:22;;;;;;;0.00;0.00;;;;;;;16.00;100.00;99086.19;4946329;28;20031;-77
2023/10/13 03:01:47;;;;;;;0.00;0.00;;;;;;;16.17;100.00;99065.94;4935917;28;20070;-77
2023/10/13 03:04:23;;;;;;;0.00;0.00;;;;;;;16.09;100.00;99059.38;4933036;28;20131;-77
2023/10/13 03:06:48;;;;;;;0.00;0.00;;;;;;;15.94;100.00;99024.13;4945442;28;20031;-77
2023/10/13 03:09:23;;;;;;;0.00;0.00;;;;;;;16.02;100.00;99048.88;4925336;28;20090;-77
2023/10/13 03:11:53;;;;;;;0.00;0.00;;;;;;;15.98;100.00;99019.56;4946158;28;20042;-77
2023/10/13 03:14:35;;;;;;;0.00;0.00;;;;;;;16.04;100.00;99029.22;4948869;28;20034;-78
2023/10/13 03:17:04;;;;;;;0.00;0.00;;;;;;;16.00;100.00;99014.50;4945244;28;20431;-78
2023/10/13 03:19:33;;;;;;;0.00;0.00;;;;;;;16.07;100.00;99025.00;4956866;28;20051;-78
2023/10/13 03:22:11;;;;;;;0.00;0.00;;;;;;;15.89;100.00;98992.06;4926929;28;20060;-79
2023/10/13 03:24:46;;;;;;;0.00;0.00;;;;;;;16.00;100.00;99026.34;4947884;28;20117;-78
2023/10/13 03:27:38;;;;;;;0.00;0.00;;;;;;;15.94;100.00;99007.56;4938563;28;20082;-77
2023/10/13 03:30:10;;;;;;;0.00;0.00;;;;;;;15.82;100.00;99011.06;4958090;28;20484;-77
2023/10/13 03:32:42;;;;;;;0.00;0.00;;;;;;;15.88;100.00;99007.75;4948899;28;20106;-78
2023/10/13 03:35:23;;;;;;;0.00;0.00;;;;;;;15.90;100.00;99021.22;4933240;28;20036;-77
2023/10/13 03:37:49;;;;;;;0.00;0.00;;;;;;;15.68;100.00;99008.53;4952489;28;20473;-77
2023/10/13 03:43:09;;;;;;;0.00;0.00;;;;;;;15.69;100.00;98982.59;4946816;28;20055;-76
2023/10/13 03:45:41;;;;;;;0.00;0.00;;;;;;;15.78;100.00;99021.13;4940067;28;20038;-76
2023/10/13 03:48:15;;;;;;;0.00;0.00;;;;;;;15.75;100.00;99000.53;4947196;28;20114;-76
2023/10/13 03:53:33;;;;;;;0.00;0.00;;;;;;;15.97;100.00;99001.38;4947195;28;20082;-76
2023/10/13 03:56:10;;;;;;;0.00;0.00;;;;;;;16.08;100.00;99021.91;4929031;28;20727;-75
2023/10/13 03:58:45;;;;;;;0.00;0.00;;;;;;;16.04;100.00;98991.41;4954451;28;20438;-76
2023/10/13 04:01:14;;;;;;;0.00;0.00;;;;;;;16.16;100.00;99001.69;4965560;28;20485;-76
2023/10/13 04:03:56;;;;;;;0.00;0.00;;;;;;;16.25;100.00;98987.03;4932533;29;20091;-76
2023/10/13 04:06:48;;;;;;;0.00;0.00;;;;;;;16.25;100.00;98964.97;4930358;28;20462;-76
2023/10/13 04:17:25;;;;;;;0.00;0.00;;;;;;;16.50;100.00;98996.19;4946913;28;20027;-76
2023/10/13 04:36:16;;;;;;;0.00;0.00;;;;;;;16.76;100.00;98954.50;4946196;28;20576;-76
2023/10/13 04:47:08;;;;;;;0.00;0.00;;;;;;;16.47;100.00;98947.22;4933041;28;20050;-78
2023/10/13 05:49:40;;;;;;;0.00;0.00;;;;;;;16.55;100.00;98852.50;4945048;28;20357;-76
2023/10/13 05:52:18;;;;;;;0.00;0.00;;;;;;;16.65;100.00;98859.53;4940005;28;20532;-76
2023/10/13 06:28:56;;;;;;;0.00;0.00;;;;;;;16.70;100.00;98817.88;4929659;28;20505;-76
2023/10/13 06:31:22;;;;;;;0.00;0.00;;;;;;;16.77;100.00;98842.94;4916252;29;20035;-76
2023/10/13 06:33:48;;;;;;;0.00;0.00;;;;;;;16.67;100.00;98808.34;4919993;28;20049;-76
2023/10/13 06:36:13;;;;;;;0.00;0.00;;;;;;;16.78;100.00;98852.03;4962754;28;20138;-76
2023/10/13 06:38:41;;;;;;;0.00;0.00;;;;;;;16.64;100.00;98813.75;4932442;28;20382;-76
2023/10/13 06:41:16;;;;;;;0.00;0.00;;;;;;;16.61;100.00;98819.97;4937812;28;20019;-76
2023/10/13 06:43:45;;;;;;;0.00;0.00;;;;;;;16.59;100.00;98839.63;4920849;28;20066;-78
2023/10/13 06:46:20;;;;;;;0.00;0.00;;;;;;;16.58;100.00;98811.22;4969999;28;20062;-77
2023/10/13 06:48:46;;;;;;;0.00;0.00;;;;;;;16.54;100.00;98809.50;4952421;28;20057;-76
2023/10/13 06:51:17;;;;;;;0.00;0.00;;;;;;;16.44;100.00;98801.69;4932764;28;20441;-77
2023/10/13 06:53:47;;;;;;;0.00;0.00;;;;;;;16.46;100.00;98805.72;4947697;28;20121;-77
2023/10/13 06:56:27;;;;;;;0.00;0.00;;;;;;;16.56;100.00;98821.81;4953168;28;20025;-82
2023/10/13 06:59:04;;;;;;;0.00;0.00;;;;;;;16.38;100.00;98803.84;4944233;28;20026;-79
2023/10/13 07:01:32;;;;;;;0.00;0.00;;;;;;;16.31;100.00;98800.88;4953703;28;20417;-78
2023/10/13 07:04:13;;;;;;;;;;;;;;;;;;;;;
2023/10/13 07:06:51;;;;;;;0.00;0.00;;;;;;;16.27;100.00;98813.75;4965442;28;20029;-76
2023/10/13 07:12:03;;;;;;;0.00;0.00;;;;;;;16.25;100.00;98808.56;4953499;28;20031;-78
2023/10/13 07:14:29;;;;;;;0.00;0.00;;;;;;;16.26;100.00;98820.41;4947321;28;20027;-77
2023/10/13 07:17:23;;;;;;;;;;;;;;;;;;;;;
2023/10/13 07:20:15;;;;;;;;;;;;;;;;;;;;;
2023/10/13 07:22:54;;;;;;;0.00;0.00;;;;;;;16.17;100.00;98796.50;4964385;28;20025;-78
2023/10/13 07:25:25;;;;;;;0.00;0.00;;;;;;;16.23;100.00;98822.69;4945964;28;20053;-76
2023/10/13 07:28:16;;;;;;;0.00;0.00;;;;;;;16.36;100.00;98825.47;4955134;28;20390;-78
2023/10/13 07:33:31;;;;;;;0.00;0.00;;;;;;;16.28;100.00;98812.59;4952569;28;20043;-77
2023/10/13 07:36:39;;;;;;;0.00;0.00;;;;;;;16.21;100.00;98811.22;4950116;28;20042;-79
2023/10/13 07:39:25;;;;;;;0.00;0.00;;;;;;;16.38;100.00;98839.72;4960700;28;20018;-79
2023/10/13 07:42:19;;;;;;;0.00;0.00;;;;;;;16.32;100.00;98841.09;4962154;28;20102;-80
2023/10/13 07:48:41;;;;;;;;;;;;;;;;;;;;;
2023/10/13 07:51:56;;;;;;;;;;;;;;;;;;;;;
2023/10/13 07:54:30;;;;;;;0.08;0.08;;;;;;;16.19;100.00;98848.53;4969584;28;20369;-79
2023/10/13 07:56:57;;;;;;;0.00;0.00;;;;;;;16.14;100.00;98833.03;4963476;28;20034;-79
2023/10/13 08:00:09;;;;;;;0.00;0.00;;;;;;;15.97;100.00;98803.69;4944499;28;20750;-80
2023/10/13 08:02:52;;;;;;;0.00;0.00;;;;;;;16.04;100.00;98819.69;4965019;28;20026;-77
2023/10/13 08:08:25;;;;;;;0.00;0.00;;;;;;;16.05;100.00;98810.28;4921934;29;20047;-78
2023/10/13 08:11:00;;;;;;;0.00;0.00;;;;;;;16.07;100.00;98819.00;4910467;28;20039;-76
2023/10/13 08:13:29;;;;;;;0.00;0.00;;;;;;;16.05;100.00;98838.63;4942648;28;20030;-78
2023/10/13 08:16:06;;;;;;;0.00;0.00;;;;;;;16.21;100.00;98840.75;4943162;28;20154;-78
2023/10/13 08:18:41;;;;;;;0.00;0.00;;;;;;;16.16;100.00;98852.78;4948151;28;20023;-78
2023/10/13 08:21:16;;;;;;;0.00;0.00;;;;;;;16.18;100.00;98825.69;4926641;28;20480;-78
2023/10/13 08:38:28;;;;;;;0.00;0.00;;;;;;;16.47;100.00;98901.13;4964527;28;20068;-77
2023/10/13 08:41:25;;;;;;;0.00;0.00;;;;;;;16.28;100.00;98856.72;4948823;28;20094;-78
2023/10/13 08:43:44;;;;;;;0.00;0.00;;;;;;;16.28;100.00;98856.72;4959451;28;20078;-77
2023/10/13 08:46:24;;;;;;;0.00;0.00;;;;;;;16.28;100.00;98856.72;4958481;28;20030;-81
2023/10/13 08:49:03;;;;;;;0.00;0.00;;;;;;;16.42;100.00;98897.78;4930087;28;20088;-77
2023/10/13 08:52:45;;;;;;;0.00;0.00;;;;;;;16.43;100.00;98902.97;4945348;28;20023;-77
2023/10/13 08:54:45;;;;;;;0.00;0.00;;;;;;;16.42;100.00;98881.22;4942360;28;20039;-79
2023/10/13 08:59:55;;;;;;;0.00;0.00;;;;;;;16.49;100.00;98879.50;4967061;28;20041;-76
2023/10/13 09:08:35;;;;;;;0.00;0.00;;;;;;;16.73;100.00;98869.63;4854504;29;20042;-76
2023/10/13 09:11:12;;;;;;;0.00;0.00;;;;;;;16.82;100.00;98875.84;4874210;28;20035;-76
2023/10/13 09:13:43;;;;;;;0.00;0.00;;;;;;;16.94;100.00;98888.88;4966900;28;20038;-77
2023/10/13 09:19:11;;;;;;;0.00;0.00;;;;;;;17.01;100.00;98872.53;4945977;28;20034;-78
2023/10/13 09:21:54;;;;;;;0.00;0.00;;;;;;;16.96;100.00;98856.19;4950445;28;20034;-79
2023/10/13 09:24:31;;;;;;;0.00;0.00;;;;;;;17.17;100.00;98872.63;4943355;28;20031;-79
2023/10/13 09:27:11;;;;;;;;;;;;;;;;;;;;;
2023/10/13 09:29:41;;;;;;;0.00;0.00;;;;;;;17.20;100.00;98858.13;4940788;28;20030;-79
2023/10/13 09:32:16;;;;;;;0.00;0.00;;;;;;;17.40;100.00;98889.47;4942354;28;20026;-78
2023/10/13 09:34:48;;;;;;;;;;;;;;;17.42;100.00;98886.34;4932602;28;20090;-78
2023/10/13 09:37:30;;;;;;;;;;;;;;;;;;;;;
2023/10/13 09:40:07;;;;;;;0.00;0.00;;;;;;;17.35;100.00;98869.59;4948462;28;20035;-78
2023/10/13 09:42:34;;;;;;;0.00;0.00;;;;;;;17.40;100.00;98844.47;4941850;28;20703;-78
2023/10/13 09:45:09;;;;;;;0.00;0.00;;;;;;;17.54;100.00;98849.63;4933556;28;20032;-77
2023/10/13 09:47:40;;;;;;;0.00;0.00;;;;;;;17.70;100.00;98874.56;4948721;28;20074;-80
2023/10/13 09:50:23;;;;;;;0.00;0.00;;;;;;;17.83;100.00;98878.88;4948896;28;20037;-78
2023/10/13 09:53:10;;;;;;;0.00;0.00;;;;;;;18.05;100.00;98871.19;4962208;28;20590;-80
2023/10/13 09:55:40;;;;;;;0.00;0.00;;;;;;;18.07;100.00;98882.69;4943259;28;20035;-80
2023/10/13 09:58:35;;;;;;;0.00;0.00;;;;;;;18.20;100.00;98891.75;4963810;28;20042;-79
2023/10/13 10:01:14;;;;;;;0.00;0.00;;;;;;;18.14;100.00;98866.28;4944164;28;20110;-79
2023/10/13 10:06:39;;;;;;;0.00;0.00;;;;;;;20.62;100.00;98858.91;4951313;28;20081;-79
2023/10/13 10:09:21;;;;;;;;;;;;;;;;;;;;;
2023/10/13 10:12:28;;;;;;;0.00;0.00;;;;;;;24.85;95.25;98843.16;4958930;28;20022;-79
2023/10/13 10:15:33;;;;;;;0.00;0.00;;;;;;;25.41;81.46;98845.47;4896504;28;20105;-80
2023/10/13 10:18:11;;;;;;;0.00;0.00;;;;;;;24.57;83.84;98855.13;4942660;28;20023;-79
2023/10/13 10:20:50;;;;;;;0.00;0.00;;;;;;;23.43;89.79;98867.56;4956349;28;20457;-81
2023/10/13 10:23:36;;;;;;;0.00;0.00;;;;;;;23.15;94.65;98832.78;4947994;28;20073;-80
2023/10/13 10:26:30;;;;;;;0.00;0.00;;;;;;;22.31;88.43;98847.19;4944631;28;20026;-78
2023/10/13 10:29:00;;;;;;;0.00;0.00;;;;;;;21.39;96.41;98846.59;4943444;28;20034;-78
2023/10/13 10:31:41;;;;;;;0.00;0.00;;;;;;;20.74;98.54;98851.22;4946223;28;20058;-78
2023/10/13 10:34:29;;;;;;;0.00;0.00;;;;;;;20.39;98.78;98852.19;4963861;28;20469;-80
2023/10/13 10:36:55;;;;;;;0.00;0.00;;;;;;;20.81;99.92;98871.94;4963945;28;20031;-79
2023/10/13 10:39:33;;;;;;;0.00;0.00;;;;;;;21.28;95.55;98828.97;4963912;28;20408;-78
2023/10/13 10:42:15;;;;;;;0.00;0.00;;;;;;;22.75;91.82;98846.44;4964090;28;20051;-78
2023/10/13 10:44:44;;;;;;;0.00;0.00;;;;;;;22.94;80.36;98841.75;4942078;28;20039;-79
2023/10/13 10:47:19;;;;;;;0.00;0.00;;;;;;;21.93;85.07;98852.00;4968478;28;20338;-79
2023/10/13 10:49:46;;;;;;;0.00;0.00;;;;;;;20.85;91.68;98870.03;4942235;28;20030;-79
2023/10/13 10:52:18;;;;;;;0.00;0.00;;;;;;;20.38;95.87;98878.38;4941678;28;20369;-79
2023/10/13 10:54:51;;;;;;;0.00;0.00;;;;;;;20.12;97.01;98856.06;4957964;28;20113;-78
2023/10/13 10:57:28;;;;;;;0.00;0.00;;;;;;;19.86;99.11;98840.94;4934232;28;20132;-78
2023/10/13 11:03:31;;;;;;;0.00;0.00;;;;;;;19.23;99.19;98823.44;4930043;28;20074;-80
2023/10/13 11:05:59;;;;;;;0.00;0.00;;;;;;;19.50;97.57;98835.47;4942537;28;20100;-79
2023/10/13 11:08:31;;;;;;;0.00;0.00;;;;;;;21.17;88.17;98814.13;4943330;28;20031;-79
2023/10/13 11:11:05;;;;;;;0.00;0.00;;;;;;;22.18;77.76;98848.69;4947364;28;20133;-80
2023/10/13 11:14:52;;;;;;;0.00;0.00;;;;;;;23.31;74.22;98849.97;4937684;28;20034;-80
2023/10/13 11:16:59;;;;;;;0.00;0.00;;;;;;;24.95;64.04;98849.91;4946353;28;20493;-79
2023/10/13 11:19:44;;;;;;;0.00;0.00;;;;;;;23.05;67.55;98867.72;4944630;28;20401;-79
2023/10/13 11:22:36;;;;;;;0.00;0.00;;;;;;;22.43;72.33;98855.31;4942882;28;20030;-80
2023/10/13 11:25:09;;;;;;;0.00;0.00;;;;;;;21.55;76.24;98879.78;4952165;28;20033;-77
2023/10/13 11:27:55;;;;;;;0.00;0.00;;;;;;;21.15;80.10;98874.84;4942696;28;20037;-77
2023/10/13 11:34:05;;;;;;;0.00;0.00;;;;;;;21.73;81.07;98871.66;4959138;28;20035;-79
2023/10/13 11:53:58;;;;;;;0.00;0.00;;;;;;;23.02;72.00;98848.97;4939704;28;20062;-77
2023/10/13 11:56:24;;;;;;;0.00;0.00;;;;;;;23.37;71.78;98853.19;4945908;28;20051;-78
2023/10/13 11:58:50;;;;;;;0.00;0.00;;;;;;;23.86;63.72;98863.00;4945398;28;20018;-77
2023/10/13 12:01:20;;;;;;;0.00;0.00;;;;;;;23.17;65.25;98841.53;4954064;28;20038;-78
2023/10/13 12:09:41;;;;;;;0.00;0.00;;;;;;;21.95;69.37;98844.88;4944765;28;20027;-77
2023/10/13 12:12:00;;;;;;;0.00;0.00;;;;;;;25.53;63.00;98825.41;4930296;28;20042;-77
2023/10/13 12:17:04;;;;;;;0.00;0.00;;;;;;;27.73;51.76;98822.75;4940191;29;20639;-77
2023/10/13 12:19:30;;;;;;;0.00;0.00;;;;;;;30.53;45.90;98830.81;4935966;28;20034;-77
2023/10/13 12:21:57;;;;;;;0.00;0.00;;;;;;;32.46;40.50;98807.97;4945530;28;20549;-76
2023/10/13 12:27:18;;;;;;;0.00;0.00;;;;;;;30.54;42.50;98780.88;4943517;28;20038;-77
2023/10/13 12:29:56;;;;;;;0.00;0.00;;;;;;;27.54;49.51;98802.56;4942868;28;20038;-75
2023/10/13 12:32:24;;;;;;;0.00;0.00;;;;;;;25.75;55.25;98783.31;4954602;28;20055;-75
2023/10/13 12:48:56;;;;;;;0.00;0.00;;;;;;;22.00;67.58;98763.03;4938269;28;20086;-76
2023/10/13 12:54:04;;;;;;;0.00;0.00;;;;;;;21.34;71.12;98757.16;4961546;28;20105;-76
2023/10/13 12:56:30;;;;;;;0.00;0.00;;;;;;;21.37;71.04;98776.66;4957036;28;20041;-76
2023/10/13 12:58:58;;;;;;;0.00;0.00;;;;;;;21.58;71.98;98758.63;4964018;28;20015;-77
2023/10/13 13:01:32;;;;;;;0.00;0.00;;;;;;;22.29;68.10;98752.94;4934637;28;20046;-77
2023/10/13 13:03:58;;;;;;;0.00;0.00;;;;;;;21.88;68.89;98771.66;4964747;28;20022;-75
2023/10/13 13:06:26;;;;;;;0.00;0.00;;;;;;;21.34;72.15;98766.28;4952560;28;20093;-76
2023/10/13 13:08:52;;;;;;;0.00;0.00;;;;;;;20.89;73.60;98779.19;4958646;28;20019;-76
2023/10/13 13:11:17;;;;;;;0.00;0.00;;;;;;;20.83;75.27;98791.81;4955676;28;20121;-77
2023/10/13 13:13:46;;;;;;;0.00;0.00;;;;;;;21.08;75.28;98762.41;4945604;28;20061;-76
2023/10/13 13:16:14;;;;;;;0.00;0.00;;;;;;;20.86;75.51;98757.72;4966025;28;20105;-76
2023/10/13 13:18:39;;;;;;;0.00;0.00;;;;;;;20.73;76.96;98760.75;4941127;28;20023;-76
2023/10/13 13:21:12;;;;;;;0.00;0.00;;;;;;;22.04;70.76;98769.44;4928029;28;20123;-77
2023/10/13 13:23:40;;;;;;;0.00;0.00;;;;;;;21.76;67.54;98765.19;4968574;28;20030;-76
2023/10/13 13:26:15;;;;;;;0.00;0.00;;;;;;;20.80;70.73;98756.47;4963174;28;20038;-77
2023/10/13 13:28:51;;;;;;;0.00;0.00;;;;;;;20.29;74.20;98780.66;4941766;28;20027;-76
2023/10/13 13:31:26;;;;;;;0.00;0.00;;;;;;;19.85;76.75;98756.13;4942080;28;20019;-76
2023/10/13 13:34:01;;;;;;;0.00;0.00;;;;;;;20.04;77.16;98742.19;4967043;28;20382;-76
2023/10/13 13:36:26;;;;;;;0.00;0.00;;;;;;;21.18;72.71;98747.03;4960460;28;20027;-75
2023/10/13 13:38:59;;;;;;;0.00;0.00;;;;;;;21.35;70.56;98753.16;4959274;28;20374;-75
2023/10/13 13:41:25;;;;;;;0.00;0.00;;;;;;;21.85;72.03;98759.31;4923047;28;20042;-75
2023/10/13 13:43:54;;;;;;;0.00;0.00;;;;;;;24.35;63.61;98759.34;4932148;28;20023;-74
2023/10/13 13:46:35;;;;;;;0.00;0.00;;;;;;;25.55;55.97;98739.06;4941712;28;20030;-73
2023/10/13 13:49:08;;;;;;;0.00;0.00;;;;;;;23.24;61.70;98740.41;4964218;28;20418;-75
2023/10/13 13:51:36;;;;;;;0.00;0.00;;;;;;;21.54;68.77;98757.81;4957483;28;20105;-74
2023/10/13 13:54:06;;;;;;;0.00;0.00;;;;;;;20.57;73.70;98774.78;4953295;28;20073;-75
2023/10/13 13:56:38;;;;;;;0.00;0.00;;;;;;;19.88;77.60;98717.34;4942581;28;20050;-74
2023/10/13 13:59:21;;;;;;;0.00;0.00;;;;;;;19.95;77.61;98747.19;4945180;28;20158;-74
2023/10/13 14:01:51;;;;;;;0.00;0.00;;;;;;;20.15;78.27;98741.56;4962087;28;20025;-75
2023/10/13 14:04:17;;;;;;;0.00;0.00;;;;;;;20.47;77.26;98735.72;4956251;28;20035;-75
2023/10/13 14:06:44;;;;;;;0.00;0.00;;;;;;;20.19;77.37;98742.44;4935616;28;20035;-74
2023/10/13 14:09:32;;;;;;;0.00;0.00;;;;;;;19.65;79.72;98747.03;4961557;28;20388;-75
2023/10/13 14:14:55;;;;;;;0.00;0.00;;;;;;;18.44;87.60;98725.53;4961753;28;20049;-74
2023/10/13 14:17:26;;;;;;;0.00;0.00;;;;;;;18.72;87.73;98729.28;4933489;28;20038;-74
2023/10/13 14:19:51;;;;;;;0.00;0.00;;;;;;;19.01;86.16;98741.81;4947313;28;20034;-73
2023/10/13 14:22:24;;;;;;;0.00;0.00;;;;;;;19.66;83.49;98723.69;4925364;28;20481;-74
2023/10/13 14:24:54;;;;;;;0.00;0.00;;;;;;;19.67;82.56;98734.41;4963572;28;20018;-74
2023/10/13 14:27:22;;;;;;;0.00;0.00;;;;;;;19.60;82.34;98734.25;4963707;28;20047;-73
2023/10/13 14:29:53;;;;;;;0.00;0.00;;;;;;;19.50;82.83;98723.78;4941408;28;20120;-74
2023/10/13 14:32:19;;;;;;;0.00;0.00;;;;;;;19.19;84.07;98714.50;4958172;28;20517;-73
2023/10/13 14:34:53;;;;;;;0.00;0.00;;;;;;;18.73;85.34;98683.84;4929917;28;20038;-74
2023/10/13 14:37:26;;;;;;;0.00;0.00;;;;;;;18.23;88.05;98692.63;4961316;28;20018;-74
2023/10/13 14:39:56;;;;;;;0.00;0.00;;;;;;;17.88;91.78;98693.34;4956443;28;20034;-74
2023/10/13 14:42:25;;;;;;;0.00;0.00;;;;;;;17.98;93.02;98703.09;4964670;28;20476;-75
2023/10/13 14:44:55;;;;;;;0.00;0.00;;;;;;;18.15;92.50;98696.41;4939230;28;20157;-75
2023/10/13 14:47:36;;;;;;;;;;;;;;;;;;;;;
2023/10/13 14:50:03;;;;;;;0.00;0.00;;;;;;;18.15;92.37;98690.88;4935945;28;20027;-74
2023/10/13 14:52:31;;;;;;;0.00;0.00;;;;;;;17.88;95.71;98703.59;4951235;28;20089;-76
2023/10/13 14:54:58;;;;;;;0.00;0.00;;;;;;;17.31;100.00;98683.59;4947541;28;20114;-75
2023/10/13 14:57:31;;;;;;;0.00;0.00;;;;;;;17.07;100.00;98683.34;4951710;28;20019;-74
2023/10/13 14:59:57;;;;;;;0.00;0.00;;;;;;;16.90;100.00;98670.66;4944771;28;20081;-74
2023/10/13 15:02:23;;;;;;;0.00;0.00;;;;;;;16.79;100.00;98686.06;4978800;28;20031;-75
2023/10/13 15:04:49;;;;;;;0.00;0.00;;;;;;;16.87;100.00;98696.19;4972316;28;20101;-75
2023/10/13 15:07:19;;;;;;;0.00;0.00;;;;;;;16.88;100.00;98681.25;4935485;28;20098;-74
2023/10/13 15:09:45;;;;;;;0.00;0.00;;;;;;;16.79;100.00;98688.81;4955808;28;20425;-76
2023/10/13 15:12:21;;;;;;;;;;;;;;;;;;;;;
2023/10/13 15:14:47;;;;;;;0.00;0.00;;;;;;;16.25;100.00;98662.38;4942819;28;20037;-76
2023/10/13 15:17:15;;;;;;;0.00;0.00;;;;;;;16.22;100.00;98677.69;4933815;28;20035;-75
2023/10/13 15:19:42;;;;;;;0.00;0.00;;;;;;;16.20;100.00;98679.19;4944784;28;20029;-76
2023/10/13 15:22:16;;;;;;;0.00;0.00;;;;;;;16.02;100.00;98657.38;4966671;28;20035;-77
2023/10/13 15:24:55;;;;;;;;;;;;;;;;;;;;;
2023/10/13 15:27:21;;;;;;;0.00;0.00;;;;;;;15.79;100.00;98659.78;4962704;28;20045;-74
2023/10/13 15:29:50;;;;;;;0.00;0.00;;;;;;;15.73;100.00;98636.34;4967014;28;20022;-75
2023/10/13 15:35:04;;;;;;;0.10;0.10;;;;;;;15.76;100.00;98654.94;4968391;28;20038;-74
2023/10/13 15:37:37;;;;;;;0.00;0.00;;;;;;;15.80;100.00;98666.91;4949128;28;20143;-75
2023/10/13 15:40:04;;;;;;;0.00;0.00;;;;;;;15.57;100.00;98657.44;4946608;28;20098;-75
2023/10/13 15:42:31;;;;;;;0.00;0.00;;;;;;;15.44;100.00;98660.16;4949434;28;20027;-75
2023/10/13 15:45:14;;;;;;;0.00;0.00;;;;;;;15.42;100.00;98673.50;4945349;28;20022;-76
2023/10/13 15:47:57;;;;;;;;;;;;;;;;;;;;;
2023/10/13 15:50:23;;;;;;;0.00;0.00;;;;;;;15.38;100.00;98650.53;4967116;28;20026;-75
2023/10/13 15:52:51;;;;;;;0.00;0.00;;;;;;;15.38;100.00;98669.81;4964308;28;20061;-76
2023/10/13 15:55:17;;;;;;;0.00;0.00;;;;;;;15.25;100.00;98646.16;4967621;28;20039;-76
2023/10/13 15:57:44;;;;;;;0.00;0.00;;;;;;;15.43;100.00;98669.56;4957937;28;20025;-76
2023/10/13 16:00:23;;;;;;;0.00;0.00;;;;;;;15.28;100.00;98639.94;4950295;28;20023;-77
2023/10/13 16:02:56;;;;;;;0.00;0.00;;;;;;;15.34;100.00;98669.66;4951369;28;20170;-77
2023/10/13 16:05:36;;;;;;;0.10;0.10;;;;;;;15.29;100.00;98680.13;4951105;28;20026;-76
2023/10/13 16:08:13;;;;;;;0.00;0.00;;;;;;;15.17;100.00;98645.91;4947600;28;20449;-75
2023/10/13 16:10:39;;;;;;;0.00;0.00;;;;;;;15.19;100.00;98660.13;4965177;28;20027;-76
2023/10/13 16:13:15;;;;;;;0.00;0.00;;;;;;;15.12;100.00;98657.09;4949401;28;20092;-75
2023/10/13 16:15:42;;;;;;;0.00;0.00;;;;;;;15.24;100.00;98666.56;4942117;28;20022;-75